<?xml version="1.0" encoding="UTF-8"?><gpx creator="Wikiloc - http://www.wikiloc.com" version="1.1" xmlns="http://www.topografix.com/GPX/1/1" xmlns:xsi="http://www.w3.org/2001/XMLSchema-instance" xsi:schemaLocation="http://www.topografix.com/GPX/1/1 http://www.topografix.com/GPX/1/1/gpx.xsd"><wpt lat="40.232240" lon="-6.858390"><ele>524.9</ele><time>2008-10-05T17:11:19Z</time><name>ERMITA ESPIRITU SANTO</name><cmt></cmt><desc></desc></wpt><wpt lat="40.224790" lon="-6.877020"><ele>502.3</ele><time>2008-10-05T17:11:19Z</time><name>ERMITA SC</name><cmt></cmt><desc></desc></wpt><wpt lat="40.224772" lon="-6.877128"><ele>0.0</ele><time>2009-05-06T14:01:26Z</time><name>PANEL INICIO</name><cmt></cmt><desc></desc></wpt><trk><name>SL-CC 207 'A la Ermita del Espíritu Santo' (Valverde del Fre...</name><cmt></cmt><desc></desc><trkseg><trkpt lat="40.224804" lon="-6.876892"><ele>502.9</ele><time>2008-10-04T18:04:26Z</time></trkpt><trkpt lat="40.224780" lon="-6.877050"><ele>500.5</ele><time>2008-10-04T18:04:31Z</time></trkpt><trkpt lat="40.224780" lon="-6.877120"><ele>499.5</ele><time>2008-10-04T18:04:35Z</time></trkpt><trkpt lat="40.224790" lon="-6.877250"><ele>498.6</ele><time>2008-10-04T18:04:44Z</time></trkpt><trkpt lat="40.224790" lon="-6.877360"><ele>498.1</ele><time>2008-10-04T18:04:50Z</time></trkpt><trkpt lat="40.224850" lon="-6.877710"><ele>497.6</ele><time>2008-10-04T18:05:15Z</time></trkpt><trkpt lat="40.224793" lon="-6.878256"><ele>498.6</ele><time>2008-10-04T18:07:30Z</time></trkpt><trkpt lat="40.224100" lon="-6.878500"><ele>494.3</ele><time>2008-10-04T18:12:39Z</time></trkpt><trkpt lat="40.223670" lon="-6.878540"><ele>493.8</ele><time>2008-10-04T18:13:07Z</time></trkpt><trkpt lat="40.223400" lon="-6.878540"><ele>495.2</ele><time>2008-10-04T18:13:26Z</time></trkpt><trkpt lat="40.223250" lon="-6.878180"><ele>492.3</ele><time>2008-10-04T18:14:28Z</time></trkpt><trkpt lat="40.223180" lon="-6.877950"><ele>489.4</ele><time>2008-10-04T18:14:48Z</time></trkpt><trkpt lat="40.223130" lon="-6.877550"><ele>493.8</ele><time>2008-10-04T18:15:22Z</time></trkpt><trkpt lat="40.223350" lon="-6.877010"><ele>494.7</ele><time>2008-10-04T18:16:08Z</time></trkpt><trkpt lat="40.223090" lon="-6.876230"><ele>492.8</ele><time>2008-10-04T18:17:13Z</time></trkpt><trkpt lat="40.222590" lon="-6.875840"><ele>486.1</ele><time>2008-10-04T18:18:08Z</time></trkpt><trkpt lat="40.222430" lon="-6.875690"><ele>483.2</ele><time>2008-10-04T18:18:27Z</time></trkpt><trkpt lat="40.222400" lon="-6.875620"><ele>480.8</ele><time>2008-10-04T18:18:35Z</time></trkpt><trkpt lat="40.222130" lon="-6.875020"><ele>480.8</ele><time>2008-10-04T18:19:25Z</time></trkpt><trkpt lat="40.222070" lon="-6.874810"><ele>480.3</ele><time>2008-10-04T18:19:44Z</time></trkpt><trkpt lat="40.222080" lon="-6.874710"><ele>481.3</ele><time>2008-10-04T18:19:52Z</time></trkpt><trkpt lat="40.222110" lon="-6.874610"><ele>478.4</ele><time>2008-10-04T18:20:00Z</time></trkpt><trkpt lat="40.222220" lon="-6.874360"><ele>474.5</ele><time>2008-10-04T18:20:23Z</time></trkpt><trkpt lat="40.222210" lon="-6.874240"><ele>478.9</ele><time>2008-10-04T18:20:33Z</time></trkpt><trkpt lat="40.222300" lon="-6.874000"><ele>474.5</ele><time>2008-10-04T18:20:54Z</time></trkpt><trkpt lat="40.222400" lon="-6.873750"><ele>476.0</ele><time>2008-10-04T18:21:17Z</time></trkpt><trkpt lat="40.222540" lon="-6.873540"><ele>474.5</ele><time>2008-10-04T18:21:40Z</time></trkpt><trkpt lat="40.222630" lon="-6.873310"><ele>469.7</ele><time>2008-10-04T18:21:59Z</time></trkpt><trkpt lat="40.222690" lon="-6.873000"><ele>469.3</ele><time>2008-10-04T18:22:22Z</time></trkpt><trkpt lat="40.222770" lon="-6.872840"><ele>468.3</ele><time>2008-10-04T18:22:37Z</time></trkpt><trkpt lat="40.222780" lon="-6.872800"><ele>467.8</ele><time>2008-10-04T18:22:39Z</time></trkpt><trkpt lat="40.222760" lon="-6.872710"><ele>468.3</ele><time>2008-10-04T18:22:46Z</time></trkpt><trkpt lat="40.222650" lon="-6.872470"><ele>468.3</ele><time>2008-10-04T18:23:09Z</time></trkpt><trkpt lat="40.222510" lon="-6.872280"><ele>470.2</ele><time>2008-10-04T18:23:29Z</time></trkpt><trkpt lat="40.222490" lon="-6.872190"><ele>466.9</ele><time>2008-10-04T18:23:44Z</time></trkpt><trkpt lat="40.222450" lon="-6.872020"><ele>468.8</ele><time>2008-10-04T18:24:17Z</time></trkpt><trkpt lat="40.222460" lon="-6.872000"><ele>468.3</ele><time>2008-10-04T18:24:44Z</time></trkpt><trkpt lat="40.222480" lon="-6.872000"><ele>468.3</ele><time>2008-10-04T18:24:46Z</time></trkpt><trkpt lat="40.222530" lon="-6.872000"><ele>468.8</ele><time>2008-10-04T18:24:50Z</time></trkpt><trkpt lat="40.222610" lon="-6.872030"><ele>468.3</ele><time>2008-10-04T18:24:59Z</time></trkpt><trkpt lat="40.222720" lon="-6.872240"><ele>469.3</ele><time>2008-10-04T18:25:16Z</time></trkpt><trkpt lat="40.222850" lon="-6.872390"><ele>468.8</ele><time>2008-10-04T18:25:31Z</time></trkpt><trkpt lat="40.223030" lon="-6.872360"><ele>469.7</ele><time>2008-10-04T18:25:48Z</time></trkpt><trkpt lat="40.223120" lon="-6.872160"><ele>471.2</ele><time>2008-10-04T18:26:06Z</time></trkpt><trkpt lat="40.223240" lon="-6.871990"><ele>472.1</ele><time>2008-10-04T18:26:22Z</time></trkpt><trkpt lat="40.223380" lon="-6.871790"><ele>472.6</ele><time>2008-10-04T18:26:38Z</time></trkpt><trkpt lat="40.223610" lon="-6.871580"><ele>475.5</ele><time>2008-10-04T18:27:03Z</time></trkpt><trkpt lat="40.223810" lon="-6.871420"><ele>479.4</ele><time>2008-10-04T18:27:19Z</time></trkpt><trkpt lat="40.223860" lon="-6.871350"><ele>480.3</ele><time>2008-10-04T18:27:26Z</time></trkpt><trkpt lat="40.223880" lon="-6.871090"><ele>478.9</ele><time>2008-10-04T18:27:46Z</time></trkpt><trkpt lat="40.223850" lon="-6.871060"><ele>478.9</ele><time>2008-10-04T18:27:49Z</time></trkpt><trkpt lat="40.223760" lon="-6.870930"><ele>478.9</ele><time>2008-10-04T18:28:01Z</time></trkpt><trkpt lat="40.223640" lon="-6.870780"><ele>483.2</ele><time>2008-10-04T18:28:13Z</time></trkpt><trkpt lat="40.223650" lon="-6.870770"><ele>482.7</ele><time>2008-10-04T18:28:14Z</time></trkpt><trkpt lat="40.223640" lon="-6.870750"><ele>482.2</ele><time>2008-10-04T18:28:17Z</time></trkpt><trkpt lat="40.223580" lon="-6.870470"><ele>477.4</ele><time>2008-10-04T18:28:33Z</time></trkpt><trkpt lat="40.223570" lon="-6.870360"><ele>475.5</ele><time>2008-10-04T18:28:40Z</time></trkpt><trkpt lat="40.223610" lon="-6.870090"><ele>473.1</ele><time>2008-10-04T18:28:59Z</time></trkpt><trkpt lat="40.223600" lon="-6.870060"><ele>473.1</ele><time>2008-10-04T18:29:00Z</time></trkpt><trkpt lat="40.223570" lon="-6.869970"><ele>474.5</ele><time>2008-10-04T18:29:07Z</time></trkpt><trkpt lat="40.223610" lon="-6.869670"><ele>470.2</ele><time>2008-10-04T18:29:29Z</time></trkpt><trkpt lat="40.223560" lon="-6.869060"><ele>476.0</ele><time>2008-10-04T18:30:13Z</time></trkpt><trkpt lat="40.223510" lon="-6.869100"><ele>479.8</ele><time>2008-10-04T18:30:48Z</time></trkpt><trkpt lat="40.223510" lon="-6.868950"><ele>479.8</ele><time>2008-10-04T18:31:03Z</time></trkpt><trkpt lat="40.223500" lon="-6.868900"><ele>479.4</ele><time>2008-10-04T18:31:07Z</time></trkpt><trkpt lat="40.223440" lon="-6.868470"><ele>478.4</ele><time>2008-10-04T18:31:34Z</time></trkpt><trkpt lat="40.223380" lon="-6.868230"><ele>476.0</ele><time>2008-10-04T18:31:53Z</time></trkpt><trkpt lat="40.223370" lon="-6.868120"><ele>477.0</ele><time>2008-10-04T18:32:09Z</time></trkpt><trkpt lat="40.223330" lon="-6.867810"><ele>477.4</ele><time>2008-10-04T18:32:25Z</time></trkpt><trkpt lat="40.223270" lon="-6.867530"><ele>476.0</ele><time>2008-10-04T18:32:43Z</time></trkpt><trkpt lat="40.223240" lon="-6.867390"><ele>475.5</ele><time>2008-10-04T18:32:52Z</time></trkpt><trkpt lat="40.223100" lon="-6.867210"><ele>473.6</ele><time>2008-10-04T18:33:10Z</time></trkpt><trkpt lat="40.223090" lon="-6.867190"><ele>473.1</ele><time>2008-10-04T18:33:11Z</time></trkpt><trkpt lat="40.222980" lon="-6.867000"><ele>473.6</ele><time>2008-10-04T18:33:30Z</time></trkpt><trkpt lat="40.222900" lon="-6.866880"><ele>472.6</ele><time>2008-10-04T18:33:45Z</time></trkpt><trkpt lat="40.222830" lon="-6.866730"><ele>473.1</ele><time>2008-10-04T18:33:57Z</time></trkpt><trkpt lat="40.222710" lon="-6.866620"><ele>470.7</ele><time>2008-10-04T18:34:12Z</time></trkpt><trkpt lat="40.222620" lon="-6.866510"><ele>469.3</ele><time>2008-10-04T18:34:28Z</time></trkpt><trkpt lat="40.222510" lon="-6.866350"><ele>469.3</ele><time>2008-10-04T18:34:43Z</time></trkpt><trkpt lat="40.222330" lon="-6.866280"><ele>468.8</ele><time>2008-10-04T18:35:02Z</time></trkpt><trkpt lat="40.222120" lon="-6.866210"><ele>467.8</ele><time>2008-10-04T18:35:22Z</time></trkpt><trkpt lat="40.222120" lon="-6.866140"><ele>461.6</ele><time>2008-10-04T18:35:40Z</time></trkpt><trkpt lat="40.222120" lon="-6.866140"><ele>461.6</ele><time>2008-10-04T18:35:41Z</time></trkpt><trkpt lat="40.222110" lon="-6.866070"><ele>460.6</ele><time>2008-10-04T18:35:48Z</time></trkpt><trkpt lat="40.222100" lon="-6.866050"><ele>460.6</ele><time>2008-10-04T18:35:51Z</time></trkpt><trkpt lat="40.222100" lon="-6.865970"><ele>459.6</ele><time>2008-10-04T18:36:04Z</time></trkpt><trkpt lat="40.222100" lon="-6.865950"><ele>458.7</ele><time>2008-10-04T18:36:04Z</time></trkpt><trkpt lat="40.222120" lon="-6.865820"><ele>459.2</ele><time>2008-10-04T18:36:19Z</time></trkpt><trkpt lat="40.222100" lon="-6.865780"><ele>460.6</ele><time>2008-10-04T18:36:26Z</time></trkpt><trkpt lat="40.222070" lon="-6.865630"><ele>459.6</ele><time>2008-10-04T18:36:36Z</time></trkpt><trkpt lat="40.222070" lon="-6.865480"><ele>461.1</ele><time>2008-10-04T18:36:47Z</time></trkpt><trkpt lat="40.222020" lon="-6.865200"><ele>462.5</ele><time>2008-10-04T18:37:09Z</time></trkpt><trkpt lat="40.221970" lon="-6.864960"><ele>462.5</ele><time>2008-10-04T18:37:28Z</time></trkpt><trkpt lat="40.221970" lon="-6.864860"><ele>463.5</ele><time>2008-10-04T18:37:36Z</time></trkpt><trkpt lat="40.222000" lon="-6.864710"><ele>464.9</ele><time>2008-10-04T18:37:47Z</time></trkpt><trkpt lat="40.222040" lon="-6.864450"><ele>468.8</ele><time>2008-10-04T18:38:07Z</time></trkpt><trkpt lat="40.222030" lon="-6.864240"><ele>465.4</ele><time>2008-10-04T18:38:23Z</time></trkpt><trkpt lat="40.221940" lon="-6.864050"><ele>467.3</ele><time>2008-10-04T18:38:38Z</time></trkpt><trkpt lat="40.221910" lon="-6.864020"><ele>467.3</ele><time>2008-10-04T18:38:41Z</time></trkpt><trkpt lat="40.221880" lon="-6.863980"><ele>467.8</ele><time>2008-10-04T18:38:46Z</time></trkpt><trkpt lat="40.221810" lon="-6.863740"><ele>470.2</ele><time>2008-10-04T18:39:04Z</time></trkpt><trkpt lat="40.221820" lon="-6.863690"><ele>470.7</ele><time>2008-10-04T18:39:17Z</time></trkpt><trkpt lat="40.221830" lon="-6.863670"><ele>471.2</ele><time>2008-10-04T18:39:21Z</time></trkpt><trkpt lat="40.221880" lon="-6.863330"><ele>472.1</ele><time>2008-10-04T18:39:43Z</time></trkpt><trkpt lat="40.221930" lon="-6.863150"><ele>473.1</ele><time>2008-10-04T18:39:55Z</time></trkpt><trkpt lat="40.221930" lon="-6.863110"><ele>473.1</ele><time>2008-10-04T18:40:06Z</time></trkpt><trkpt lat="40.222110" lon="-6.863150"><ele>474.1</ele><time>2008-10-04T18:40:22Z</time></trkpt><trkpt lat="40.222330" lon="-6.863170"><ele>478.9</ele><time>2008-10-04T18:40:39Z</time></trkpt><trkpt lat="40.222450" lon="-6.863150"><ele>478.4</ele><time>2008-10-04T18:40:56Z</time></trkpt><trkpt lat="40.222420" lon="-6.863100"><ele>477.9</ele><time>2008-10-04T18:41:09Z</time></trkpt><trkpt lat="40.222400" lon="-6.862810"><ele>477.4</ele><time>2008-10-04T18:41:28Z</time></trkpt><trkpt lat="40.222470" lon="-6.862580"><ele>479.4</ele><time>2008-10-04T18:41:47Z</time></trkpt><trkpt lat="40.222520" lon="-6.862520"><ele>479.4</ele><time>2008-10-04T18:42:00Z</time></trkpt><trkpt lat="40.222610" lon="-6.862370"><ele>481.3</ele><time>2008-10-04T18:42:14Z</time></trkpt><trkpt lat="40.222760" lon="-6.862220"><ele>483.7</ele><time>2008-10-04T18:42:32Z</time></trkpt><trkpt lat="40.222970" lon="-6.862100"><ele>485.6</ele><time>2008-10-04T18:42:53Z</time></trkpt><trkpt lat="40.223140" lon="-6.861910"><ele>486.1</ele><time>2008-10-04T18:43:16Z</time></trkpt><trkpt lat="40.223320" lon="-6.861740"><ele>486.1</ele><time>2008-10-04T18:43:38Z</time></trkpt><trkpt lat="40.223480" lon="-6.861570"><ele>487.5</ele><time>2008-10-04T18:43:57Z</time></trkpt><trkpt lat="40.223650" lon="-6.861420"><ele>488.5</ele><time>2008-10-04T18:44:14Z</time></trkpt><trkpt lat="40.223870" lon="-6.861340"><ele>490.9</ele><time>2008-10-04T18:44:36Z</time></trkpt><trkpt lat="40.224070" lon="-6.861300"><ele>492.3</ele><time>2008-10-04T18:44:55Z</time></trkpt><trkpt lat="40.224110" lon="-6.861300"><ele>491.4</ele><time>2008-10-04T18:45:12Z</time></trkpt><trkpt lat="40.224210" lon="-6.861230"><ele>492.8</ele><time>2008-10-04T18:45:27Z</time></trkpt><trkpt lat="40.224210" lon="-6.861230"><ele>493.3</ele><time>2008-10-04T18:45:27Z</time></trkpt><trkpt lat="40.224370" lon="-6.861040"><ele>491.9</ele><time>2008-10-04T18:45:46Z</time></trkpt><trkpt lat="40.224430" lon="-6.860660"><ele>490.4</ele><time>2008-10-04T18:46:08Z</time></trkpt><trkpt lat="40.224410" lon="-6.860350"><ele>491.4</ele><time>2008-10-04T18:46:28Z</time></trkpt><trkpt lat="40.224250" lon="-6.860160"><ele>490.9</ele><time>2008-10-04T18:46:45Z</time></trkpt><trkpt lat="40.224020" lon="-6.860030"><ele>490.9</ele><time>2008-10-04T18:47:07Z</time></trkpt><trkpt lat="40.223890" lon="-6.859850"><ele>493.3</ele><time>2008-10-04T18:47:24Z</time></trkpt><trkpt lat="40.223770" lon="-6.859670"><ele>492.3</ele><time>2008-10-04T18:47:43Z</time></trkpt><trkpt lat="40.223720" lon="-6.859540"><ele>492.3</ele><time>2008-10-04T18:48:04Z</time></trkpt><trkpt lat="40.223750" lon="-6.859460"><ele>493.8</ele><time>2008-10-04T18:48:16Z</time></trkpt><trkpt lat="40.223880" lon="-6.859290"><ele>492.8</ele><time>2008-10-04T18:48:32Z</time></trkpt><trkpt lat="40.224010" lon="-6.859090"><ele>494.7</ele><time>2008-10-04T18:48:52Z</time></trkpt><trkpt lat="40.224140" lon="-6.858870"><ele>498.1</ele><time>2008-10-04T18:49:14Z</time></trkpt><trkpt lat="40.224300" lon="-6.858640"><ele>498.1</ele><time>2008-10-04T18:49:34Z</time></trkpt><trkpt lat="40.224470" lon="-6.858540"><ele>499.5</ele><time>2008-10-04T18:49:52Z</time></trkpt><trkpt lat="40.224660" lon="-6.858480"><ele>501.0</ele><time>2008-10-04T18:50:09Z</time></trkpt><trkpt lat="40.224890" lon="-6.858390"><ele>501.9</ele><time>2008-10-04T18:50:32Z</time></trkpt><trkpt lat="40.225090" lon="-6.858350"><ele>502.4</ele><time>2008-10-04T18:50:51Z</time></trkpt><trkpt lat="40.225310" lon="-6.858250"><ele>504.4</ele><time>2008-10-04T18:51:10Z</time></trkpt><trkpt lat="40.225520" lon="-6.858250"><ele>503.9</ele><time>2008-10-04T18:51:30Z</time></trkpt><trkpt lat="40.225720" lon="-6.858320"><ele>506.3</ele><time>2008-10-04T18:51:48Z</time></trkpt><trkpt lat="40.225810" lon="-6.858350"><ele>504.8</ele><time>2008-10-04T18:52:04Z</time></trkpt><trkpt lat="40.225950" lon="-6.858410"><ele>504.8</ele><time>2008-10-04T18:52:20Z</time></trkpt><trkpt lat="40.226220" lon="-6.858550"><ele>507.2</ele><time>2008-10-04T18:52:42Z</time></trkpt><trkpt lat="40.226390" lon="-6.858680"><ele>508.7</ele><time>2008-10-04T18:52:59Z</time></trkpt><trkpt lat="40.226550" lon="-6.858750"><ele>507.2</ele><time>2008-10-04T18:53:18Z</time></trkpt><trkpt lat="40.226750" lon="-6.858650"><ele>508.7</ele><time>2008-10-04T18:53:38Z</time></trkpt><trkpt lat="40.226950" lon="-6.858760"><ele>507.7</ele><time>2008-10-04T18:54:00Z</time></trkpt><trkpt lat="40.227130" lon="-6.858850"><ele>507.2</ele><time>2008-10-04T18:54:19Z</time></trkpt><trkpt lat="40.227360" lon="-6.858970"><ele>510.1</ele><time>2008-10-04T18:54:41Z</time></trkpt><trkpt lat="40.227540" lon="-6.859060"><ele>509.6</ele><time>2008-10-04T18:55:01Z</time></trkpt><trkpt lat="40.227730" lon="-6.859140"><ele>509.6</ele><time>2008-10-04T18:55:20Z</time></trkpt><trkpt lat="40.227830" lon="-6.859180"><ele>509.6</ele><time>2008-10-04T18:55:29Z</time></trkpt><trkpt lat="40.228010" lon="-6.859270"><ele>511.1</ele><time>2008-10-04T18:55:48Z</time></trkpt><trkpt lat="40.228190" lon="-6.859370"><ele>511.1</ele><time>2008-10-04T18:56:07Z</time></trkpt><trkpt lat="40.228320" lon="-6.859480"><ele>511.5</ele><time>2008-10-04T18:56:22Z</time></trkpt><trkpt lat="40.228510" lon="-6.859610"><ele>511.5</ele><time>2008-10-04T18:56:42Z</time></trkpt><trkpt lat="40.228670" lon="-6.859760"><ele>511.5</ele><time>2008-10-04T18:57:01Z</time></trkpt><trkpt lat="40.228850" lon="-6.859750"><ele>513.0</ele><time>2008-10-04T18:57:20Z</time></trkpt><trkpt lat="40.228980" lon="-6.859680"><ele>514.0</ele><time>2008-10-04T18:57:37Z</time></trkpt><trkpt lat="40.229090" lon="-6.859600"><ele>514.9</ele><time>2008-10-04T18:57:55Z</time></trkpt><trkpt lat="40.229110" lon="-6.859570"><ele>515.9</ele><time>2008-10-04T18:57:59Z</time></trkpt><trkpt lat="40.229290" lon="-6.859410"><ele>515.9</ele><time>2008-10-04T18:58:19Z</time></trkpt><trkpt lat="40.229450" lon="-6.859270"><ele>518.3</ele><time>2008-10-04T18:58:38Z</time></trkpt><trkpt lat="40.229630" lon="-6.859310"><ele>517.8</ele><time>2008-10-04T18:58:57Z</time></trkpt><trkpt lat="40.229650" lon="-6.859310"><ele>522.1</ele><time>2008-10-04T18:59:02Z</time></trkpt><trkpt lat="40.229910" lon="-6.859340"><ele>519.7</ele><time>2008-10-04T18:59:24Z</time></trkpt><trkpt lat="40.230120" lon="-6.859280"><ele>518.8</ele><time>2008-10-04T18:59:43Z</time></trkpt><trkpt lat="40.230340" lon="-6.859150"><ele>517.8</ele><time>2008-10-04T19:00:07Z</time></trkpt><trkpt lat="40.230350" lon="-6.859140"><ele>517.3</ele><time>2008-10-04T19:00:07Z</time></trkpt><trkpt lat="40.230460" lon="-6.858970"><ele>517.3</ele><time>2008-10-04T19:00:26Z</time></trkpt><trkpt lat="40.230480" lon="-6.858900"><ele>516.8</ele><time>2008-10-04T19:00:33Z</time></trkpt><trkpt lat="40.230600" lon="-6.858790"><ele>518.3</ele><time>2008-10-04T19:00:49Z</time></trkpt><trkpt lat="40.230700" lon="-6.858740"><ele>518.8</ele><time>2008-10-04T19:01:00Z</time></trkpt><trkpt lat="40.230780" lon="-6.858680"><ele>519.3</ele><time>2008-10-04T19:01:11Z</time></trkpt><trkpt lat="40.230940" lon="-6.858580"><ele>521.2</ele><time>2008-10-04T19:01:28Z</time></trkpt><trkpt lat="40.231070" lon="-6.858430"><ele>522.1</ele><time>2008-10-04T19:01:44Z</time></trkpt><trkpt lat="40.231200" lon="-6.858260"><ele>522.6</ele><time>2008-10-04T19:02:03Z</time></trkpt><trkpt lat="40.231410" lon="-6.858150"><ele>524.0</ele><time>2008-10-04T19:02:25Z</time></trkpt><trkpt lat="40.231650" lon="-6.858170"><ele>527.9</ele><time>2008-10-04T19:02:45Z</time></trkpt><trkpt lat="40.231870" lon="-6.858260"><ele>530.3</ele><time>2008-10-04T19:03:07Z</time></trkpt><trkpt lat="40.231980" lon="-6.858230"><ele>527.9</ele><time>2008-10-04T19:03:22Z</time></trkpt><trkpt lat="40.232150" lon="-6.858230"><ele>527.4</ele><time>2008-10-04T19:03:39Z</time></trkpt><trkpt lat="40.232250" lon="-6.858290"><ele>526.5</ele><time>2008-10-04T19:03:53Z</time></trkpt><trkpt lat="40.232260" lon="-6.858540"><ele>525.0</ele><time>2008-10-04T19:04:14Z</time></trkpt><trkpt lat="40.232250" lon="-6.858460"><ele>525.5</ele><time>2008-10-04T19:04:41Z</time></trkpt><trkpt lat="40.232250" lon="-6.858500"><ele>525.5</ele><time>2008-10-04T19:04:44Z</time></trkpt><trkpt lat="40.232290" lon="-6.858790"><ele>527.9</ele><time>2008-10-04T19:05:07Z</time></trkpt><trkpt lat="40.232270" lon="-6.859060"><ele>528.4</ele><time>2008-10-04T19:05:27Z</time></trkpt><trkpt lat="40.232190" lon="-6.859230"><ele>523.6</ele><time>2008-10-04T19:05:45Z</time></trkpt><trkpt lat="40.232050" lon="-6.859450"><ele>523.6</ele><time>2008-10-04T19:06:09Z</time></trkpt><trkpt lat="40.232040" lon="-6.859480"><ele>523.6</ele><time>2008-10-04T19:06:13Z</time></trkpt><trkpt lat="40.232030" lon="-6.859840"><ele>524.5</ele><time>2008-10-04T19:06:36Z</time></trkpt><trkpt lat="40.232060" lon="-6.860030"><ele>526.0</ele><time>2008-10-04T19:06:48Z</time></trkpt><trkpt lat="40.231930" lon="-6.860320"><ele>526.0</ele><time>2008-10-04T19:07:07Z</time></trkpt><trkpt lat="40.231870" lon="-6.860610"><ele>526.9</ele><time>2008-10-04T19:07:26Z</time></trkpt><trkpt lat="40.231840" lon="-6.860890"><ele>528.9</ele><time>2008-10-04T19:07:46Z</time></trkpt><trkpt lat="40.231730" lon="-6.861130"><ele>530.3</ele><time>2008-10-04T19:08:06Z</time></trkpt><trkpt lat="40.231620" lon="-6.861300"><ele>528.9</ele><time>2008-10-04T19:08:24Z</time></trkpt><trkpt lat="40.231540" lon="-6.861480"><ele>531.8</ele><time>2008-10-04T19:08:43Z</time></trkpt><trkpt lat="40.231410" lon="-6.861720"><ele>530.8</ele><time>2008-10-04T19:09:02Z</time></trkpt><trkpt lat="40.231200" lon="-6.861980"><ele>525.5</ele><time>2008-10-04T19:09:30Z</time></trkpt><trkpt lat="40.231000" lon="-6.862310"><ele>524.5</ele><time>2008-10-04T19:09:54Z</time></trkpt><trkpt lat="40.230820" lon="-6.862520"><ele>521.7</ele><time>2008-10-04T19:10:16Z</time></trkpt><trkpt lat="40.230690" lon="-6.862740"><ele>520.2</ele><time>2008-10-04T19:10:36Z</time></trkpt><trkpt lat="40.230490" lon="-6.862990"><ele>516.4</ele><time>2008-10-04T19:10:58Z</time></trkpt><trkpt lat="40.230250" lon="-6.863070"><ele>522.6</ele><time>2008-10-04T19:11:22Z</time></trkpt><trkpt lat="40.230070" lon="-6.863180"><ele>523.1</ele><time>2008-10-04T19:11:42Z</time></trkpt><trkpt lat="40.229870" lon="-6.863410"><ele>524.0</ele><time>2008-10-04T19:12:05Z</time></trkpt><trkpt lat="40.229730" lon="-6.863690"><ele>520.2</ele><time>2008-10-04T19:12:27Z</time></trkpt><trkpt lat="40.229620" lon="-6.863960"><ele>516.8</ele><time>2008-10-04T19:12:47Z</time></trkpt><trkpt lat="40.229540" lon="-6.864220"><ele>515.4</ele><time>2008-10-04T19:13:06Z</time></trkpt><trkpt lat="40.229450" lon="-6.864440"><ele>512.5</ele><time>2008-10-04T19:13:24Z</time></trkpt><trkpt lat="40.229340" lon="-6.864590"><ele>513.5</ele><time>2008-10-04T19:13:40Z</time></trkpt><trkpt lat="40.229250" lon="-6.864730"><ele>514.4</ele><time>2008-10-04T19:14:00Z</time></trkpt><trkpt lat="40.229180" lon="-6.864970"><ele>515.9</ele><time>2008-10-04T19:14:15Z</time></trkpt><trkpt lat="40.229090" lon="-6.865300"><ele>520.2</ele><time>2008-10-04T19:14:37Z</time></trkpt><trkpt lat="40.229060" lon="-6.865590"><ele>518.8</ele><time>2008-10-04T19:14:54Z</time></trkpt><trkpt lat="40.229010" lon="-6.865750"><ele>516.8</ele><time>2008-10-04T19:15:06Z</time></trkpt><trkpt lat="40.228960" lon="-6.865830"><ele>515.4</ele><time>2008-10-04T19:15:14Z</time></trkpt><trkpt lat="40.228300" lon="-6.866370"><ele>501.9</ele><time>2008-10-04T19:16:22Z</time></trkpt><trkpt lat="40.228120" lon="-6.866530"><ele>504.8</ele><time>2008-10-04T19:16:38Z</time></trkpt><trkpt lat="40.227950" lon="-6.866670"><ele>506.3</ele><time>2008-10-04T19:16:57Z</time></trkpt><trkpt lat="40.227860" lon="-6.866740"><ele>507.7</ele><time>2008-10-04T19:17:15Z</time></trkpt><trkpt lat="40.227700" lon="-6.866890"><ele>514.0</ele><time>2008-10-04T19:20:17Z</time></trkpt><trkpt lat="40.227480" lon="-6.867120"><ele>511.1</ele><time>2008-10-04T19:20:37Z</time></trkpt><trkpt lat="40.227220" lon="-6.867280"><ele>505.8</ele><time>2008-10-04T19:20:59Z</time></trkpt><trkpt lat="40.226950" lon="-6.867410"><ele>501.9</ele><time>2008-10-04T19:21:22Z</time></trkpt><trkpt lat="40.226750" lon="-6.867490"><ele>500.0</ele><time>2008-10-04T19:21:41Z</time></trkpt><trkpt lat="40.226530" lon="-6.867650"><ele>499.0</ele><time>2008-10-04T19:22:02Z</time></trkpt><trkpt lat="40.226490" lon="-6.867700"><ele>499.0</ele><time>2008-10-04T19:22:08Z</time></trkpt><trkpt lat="40.226340" lon="-6.867920"><ele>496.2</ele><time>2008-10-04T19:22:25Z</time></trkpt><trkpt lat="40.226290" lon="-6.868180"><ele>497.1</ele><time>2008-10-04T19:22:43Z</time></trkpt><trkpt lat="40.226230" lon="-6.868440"><ele>494.3</ele><time>2008-10-04T19:23:00Z</time></trkpt><trkpt lat="40.226150" lon="-6.868660"><ele>495.7</ele><time>2008-10-04T19:23:15Z</time></trkpt><trkpt lat="40.226140" lon="-6.868690"><ele>495.2</ele><time>2008-10-04T19:23:19Z</time></trkpt><trkpt lat="40.226110" lon="-6.868680"><ele>497.1</ele><time>2008-10-04T19:23:34Z</time></trkpt><trkpt lat="40.226030" lon="-6.868670"><ele>496.7</ele><time>2008-10-04T19:24:09Z</time></trkpt><trkpt lat="40.226020" lon="-6.868680"><ele>495.7</ele><time>2008-10-04T19:24:09Z</time></trkpt><trkpt lat="40.225760" lon="-6.868770"><ele>492.8</ele><time>2008-10-04T19:24:32Z</time></trkpt><trkpt lat="40.225610" lon="-6.868970"><ele>489.4</ele><time>2008-10-04T19:24:50Z</time></trkpt><trkpt lat="40.225520" lon="-6.869240"><ele>490.4</ele><time>2008-10-04T19:25:08Z</time></trkpt><trkpt lat="40.225370" lon="-6.869470"><ele>489.4</ele><time>2008-10-04T19:25:26Z</time></trkpt><trkpt lat="40.225330" lon="-6.869590"><ele>487.0</ele><time>2008-10-04T19:25:35Z</time></trkpt><trkpt lat="40.225320" lon="-6.869680"><ele>487.5</ele><time>2008-10-04T19:25:42Z</time></trkpt><trkpt lat="40.225280" lon="-6.869960"><ele>485.6</ele><time>2008-10-04T19:25:57Z</time></trkpt><trkpt lat="40.225320" lon="-6.870160"><ele>484.6</ele><time>2008-10-04T19:26:13Z</time></trkpt><trkpt lat="40.225280" lon="-6.870340"><ele>481.8</ele><time>2008-10-04T19:26:25Z</time></trkpt><trkpt lat="40.225280" lon="-6.870580"><ele>481.3</ele><time>2008-10-04T19:26:43Z</time></trkpt><trkpt lat="40.225280" lon="-6.870880"><ele>482.2</ele><time>2008-10-04T19:27:02Z</time></trkpt><trkpt lat="40.225230" lon="-6.871150"><ele>480.3</ele><time>2008-10-04T19:27:18Z</time></trkpt><trkpt lat="40.225180" lon="-6.871380"><ele>481.3</ele><time>2008-10-04T19:27:36Z</time></trkpt><trkpt lat="40.225130" lon="-6.871480"><ele>480.3</ele><time>2008-10-04T19:27:45Z</time></trkpt><trkpt lat="40.225030" lon="-6.871650"><ele>476.0</ele><time>2008-10-04T19:28:04Z</time></trkpt><trkpt lat="40.224990" lon="-6.871760"><ele>470.2</ele><time>2008-10-04T19:32:39Z</time></trkpt><trkpt lat="40.225000" lon="-6.871830"><ele>473.1</ele><time>2008-10-04T19:32:47Z</time></trkpt><trkpt lat="40.225040" lon="-6.872080"><ele>474.5</ele><time>2008-10-04T19:33:09Z</time></trkpt><trkpt lat="40.225080" lon="-6.872190"><ele>474.5</ele><time>2008-10-04T19:33:25Z</time></trkpt><trkpt lat="40.225070" lon="-6.872290"><ele>471.7</ele><time>2008-10-04T19:33:44Z</time></trkpt><trkpt lat="40.225010" lon="-6.872510"><ele>475.0</ele><time>2008-10-04T19:34:10Z</time></trkpt><trkpt lat="40.224940" lon="-6.872590"><ele>478.4</ele><time>2008-10-04T19:34:26Z</time></trkpt><trkpt lat="40.224850" lon="-6.872600"><ele>480.3</ele><time>2008-10-04T19:34:44Z</time></trkpt><trkpt lat="40.224730" lon="-6.872630"><ele>481.8</ele><time>2008-10-04T19:35:01Z</time></trkpt><trkpt lat="40.224620" lon="-6.872710"><ele>480.8</ele><time>2008-10-04T19:35:21Z</time></trkpt><trkpt lat="40.224550" lon="-6.872890"><ele>481.3</ele><time>2008-10-04T19:35:42Z</time></trkpt><trkpt lat="40.224530" lon="-6.872930"><ele>481.8</ele><time>2008-10-04T19:35:44Z</time></trkpt><trkpt lat="40.224460" lon="-6.873130"><ele>479.8</ele><time>2008-10-04T19:36:03Z</time></trkpt><trkpt lat="40.224410" lon="-6.873280"><ele>478.4</ele><time>2008-10-04T19:36:18Z</time></trkpt><trkpt lat="40.224420" lon="-6.873490"><ele>477.9</ele><time>2008-10-04T19:36:34Z</time></trkpt><trkpt lat="40.224430" lon="-6.873700"><ele>479.4</ele><time>2008-10-04T19:36:49Z</time></trkpt><trkpt lat="40.224470" lon="-6.873920"><ele>477.9</ele><time>2008-10-04T19:37:04Z</time></trkpt><trkpt lat="40.224490" lon="-6.874110"><ele>477.9</ele><time>2008-10-04T19:37:19Z</time></trkpt><trkpt lat="40.224510" lon="-6.874260"><ele>478.9</ele><time>2008-10-04T19:37:30Z</time></trkpt><trkpt lat="40.224530" lon="-6.874480"><ele>480.8</ele><time>2008-10-04T19:37:44Z</time></trkpt><trkpt lat="40.224540" lon="-6.874730"><ele>484.2</ele><time>2008-10-04T19:38:02Z</time></trkpt><trkpt lat="40.224560" lon="-6.874810"><ele>483.2</ele><time>2008-10-04T19:38:14Z</time></trkpt><trkpt lat="40.224590" lon="-6.874860"><ele>483.2</ele><time>2008-10-04T19:38:26Z</time></trkpt><trkpt lat="40.224600" lon="-6.874890"><ele>484.2</ele><time>2008-10-04T19:38:52Z</time></trkpt><trkpt lat="40.224670" lon="-6.875080"><ele>483.7</ele><time>2008-10-04T19:39:11Z</time></trkpt><trkpt lat="40.224710" lon="-6.875270"><ele>484.6</ele><time>2008-10-04T19:39:26Z</time></trkpt><trkpt lat="40.224730" lon="-6.875490"><ele>484.2</ele><time>2008-10-04T19:39:42Z</time></trkpt><trkpt lat="40.224720" lon="-6.875760"><ele>485.6</ele><time>2008-10-04T19:39:58Z</time></trkpt><trkpt lat="40.224720" lon="-6.876030"><ele>487.0</ele><time>2008-10-04T19:40:17Z</time></trkpt><trkpt lat="40.224720" lon="-6.876300"><ele>487.0</ele><time>2008-10-04T19:40:37Z</time></trkpt><trkpt lat="40.224700" lon="-6.876670"><ele>490.9</ele><time>2008-10-04T19:41:03Z</time></trkpt><trkpt lat="40.224730" lon="-6.876740"><ele>487.5</ele><time>2008-10-04T19:41:18Z</time></trkpt><trkpt lat="40.224750" lon="-6.876750"><ele>490.4</ele><time>2008-10-04T19:41:45Z</time></trkpt><trkpt lat="40.224810" lon="-6.876880"><ele>495.2</ele><time>2008-10-04T19:42:13Z</time></trkpt><trkpt lat="40.224810" lon="-6.876890"><ele>495.2</ele><time>2008-10-04T19:42:14Z</time></trkpt></trkseg></trk></gpx>